Time;durP1;ratioP1;P1;durP2;ratioP2;P2;SDS_P1;SDS_P2;PMS_P1;PMS_P2;Temp;Humidity;BMP_temperature;BMP_pressure;BME280_temperature;BME280_humidity;BME280_pressure;Samples;Min_cycle;Max_cycle;Signal;HPM_P1;HPM_P2
2021/06/06 00:02:14;;;;;;;;;7.00;6.00;;;;;;;;3579005;39;113287;-75
2021/06/06 00:04:44;;;;;;;;;7.75;6.50;;;;;;;;3581936;39;113912;-75
2021/06/06 00:07:10;;;;;;;;;7.25;5.75;;;;;;;;3579343;39;113667;-75
2021/06/06 00:09:38;;;;;;;;;9.00;6.00;;;;;;;;3578702;39;113949;-74
2021/06/06 00:12:04;;;;;;;;;6.25;6.00;;;;;;;;3579806;39;112749;-74
2021/06/06 00:14:33;;;;;;;;;8.50;5.50;;;;;;;;3578821;39;113229;-74
2021/06/06 00:17:00;;;;;;;;;6.50;6.50;;;;;;;;3579566;39;113933;-74
2021/06/06 00:19:27;;;;;;;;;10.50;8.00;;;;;;;;3578558;39;111747;-74
2021/06/06 00:21:54;;;;;;;;;8.50;7.50;;;;;;;;3580339;39;112903;-74
2021/06/06 00:24:23;;;;;;;;;6.00;5.00;;;;;;;;3578102;39;114177;-74
2021/06/06 00:26:51;;;;;;;;;9.00;6.25;;;;;;;;3582607;39;111990;-74
2021/06/06 00:29:18;;;;;;;;;5.50;5.00;;;;;;;;3578374;39;113814;-74
2021/06/06 00:31:44;;;;;;;;;5.00;5.00;;;;;;;;3579913;39;113277;-74
2021/06/06 00:34:10;;;;;;;;;5.50;5.25;;;;;;;;3578814;39;113429;-74
2021/06/06 00:36:37;;;;;;;;;6.00;6.00;;;;;;;;3578809;39;114039;-74
2021/06/06 00:39:03;;;;;;;;;7.00;6.25;;;;;;;;3579575;39;111975;-74
2021/06/06 00:41:29;;;;;;;;;5.00;5.00;;;;;;;;3578809;39;112229;-74
2021/06/06 00:43:57;;;;;;;;;6.00;6.00;;;;;;;;3581714;39;114215;-74
2021/06/06 00:46:25;;;;;;;;;7.00;6.00;;;;;;;;3578462;39;112304;-74
2021/06/06 00:48:51;;;;;;;;;6.50;6.50;;;;;;;;3580684;39;113398;-74
2021/06/06 00:51:19;;;;;;;;;7.00;7.00;;;;;;;;3579983;39;112408;-74
2021/06/06 00:53:48;;;;;;;;;8.00;6.00;;;;;;;;3578813;39;113271;-74
2021/06/06 00:56:16;;;;;;;;;10.00;6.00;;;;;;;;3579217;39;114571;-74
2021/06/06 00:58:43;;;;;;;;;9.00;6.00;;;;;;;;3578920;39;111813;-74
2021/06/06 01:01:11;;;;;;;;;6.00;6.00;;;;;;;;3579060;39;113394;-74
2021/06/06 01:03:38;;;;;;;;;6.75;5.50;;;;;;;;3579000;39;113822;-74
2021/06/06 01:06:06;;;;;;;;;4.50;4.50;;;;;;;;3578744;39;111808;-74
2021/06/06 01:08:33;;;;;;;;;6.75;6.00;;;;;;;;3579371;39;113435;-74
2021/06/06 01:11:01;;;;;;;;;4.25;3.75;;;;;;;;3580673;39;113863;-74
2021/06/06 01:13:31;;;;;;;;;5.25;5.00;;;;;;;;3579839;39;113861;-74
2021/06/06 01:16:00;;;;;;;;;6.00;6.00;;;;;;;;3577732;39;113950;-74
2021/06/06 01:18:29;;;;;;;;;5.00;4.50;;;;;;;;3580048;39;111758;-74
2021/06/06 01:21:04;;;;;;;;;4.50;4.50;;;;;;;;3578067;39;113153;-74
2021/06/06 01:23:45;;;;;;;;;5.00;5.00;;;;;;;;3579153;39;113896;-74
2021/06/06 01:26:14;;;;;;;;;3.25;3.25;;;;;;;;3579228;39;112391;-74
2021/06/06 01:28:43;;;;;;;;;4.75;4.75;;;;;;;;3578746;39;113256;-73
2021/06/06 01:31:11;;;;;;;;;10.25;6.75;;;;;;;;3578602;39;113834;-73
2021/06/06 01:33:39;;;;;;;;;4.75;4.25;;;;;;;;3581916;39;111802;-73
2021/06/06 01:36:08;;;;;;;;;7.75;5.50;;;;;;;;3579625;39;114614;-73
2021/06/06 01:38:36;;;;;;;;;6.00;4.75;;;;;;;;3580767;39;112307;-73
2021/06/06 01:41:07;;;;;;;;;8.25;5.00;;;;;;;;3579156;39;113534;-74
2021/06/06 01:43:37;;;;;;;;;6.75;4.50;;;;;;;;3578019;39;113871;-74
2021/06/06 01:46:05;;;;;;;;;5.50;4.75;;;;;;;;3579134;39;111952;-74
2021/06/06 01:48:33;;;;;;;;;5.75;5.00;;;;;;;;3578386;39;113302;-75
2021/06/06 01:51:00;;;;;;;;;9.75;5.50;;;;;;;;3575268;39;112909;-74
2021/06/06 01:53:28;;;;;;;;;5.00;5.00;;;;;;;;3580675;39;111971;-74
2021/06/06 01:55:56;;;;;;;;;7.50;5.75;;;;;;;;3579097;39;114886;-74
2021/06/06 01:58:23;;;;;;;;;8.25;6.00;;;;;;;;3577779;39;111951;-74
2021/06/06 02:00:52;;;;;;;;;6.50;6.00;;;;;;;;3579311;39;114646;-74
2021/06/06 02:03:18;;;;;;;;;8.00;6.00;;;;;;;;3577405;39;114014;-74
2021/06/06 02:05:44;;;;;;;;;8.50;6.25;;;;;;;;3579777;39;111953;-74
2021/06/06 02:08:13;;;;;;;;;5.25;5.00;;;;;;;;3578788;39;113176;-74
2021/06/06 02:10:42;;;;;;;;;7.50;5.50;;;;;;;;3578979;39;114108;-73
2021/06/06 02:13:10;;;;;;;;;8.00;5.75;;;;;;;;3580494;39;111811;-74
2021/06/06 02:15:38;;;;;;;;;5.50;4.50;;;;;;;;3585038;39;113297;-74
2021/06/06 02:18:06;;;;;;;;;5.00;5.00;;;;;;;;3578678;39;111858;-74
2021/06/06 02:20:35;;;;;;;;;6.00;5.25;;;;;;;;3580381;39;113207;-74
2021/06/06 02:23:01;;;;;;;;;4.50;4.50;;;;;;;;3579005;39;113841;-74
2021/06/06 02:25:28;;;;;;;;;5.50;5.00;;;;;;;;3580706;39;111809;-72
2021/06/06 02:28:01;;;;;;;;;8.00;5.75;;;;;;;;3580597;39;113317;-72
2021/06/06 02:30:30;;;;;;;;;9.25;6.00;;;;;;;;3578749;39;114056;-72
2021/06/06 02:32:59;;;;;;;;;6.00;4.50;;;;;;;;3580008;39;112065;-73
2021/06/06 02:35:30;;;;;;;;;5.50;4.50;;;;;;;;3583365;39;113338;-73
2021/06/06 02:37:58;;;;;;;;;5.00;5.00;;;;;;;;3582684;39;113951;-73
2021/06/06 02:40:28;;;;;;;;;6.00;5.00;;;;;;;;3581338;39;113236;-73
2021/06/06 02:42:56;;;;;;;;;5.75;4.00;;;;;;;;3582415;39;113886;-73
2021/06/06 02:45:24;;;;;;;;;5.00;4.50;;;;;;;;3580888;39;111895;-73
2021/06/06 02:47:51;;;;;;;;;5.00;5.00;;;;;;;;3578895;39;113381;-73
2021/06/06 02:50:20;;;;;;;;;6.00;4.75;;;;;;;;3580202;39;113850;-73
2021/06/06 02:52:50;;;;;;;;;5.00;3.50;;;;;;;;3579074;39;112062;-74
2021/06/06 02:55:17;;;;;;;;;8.50;4.75;;;;;;;;3580705;39;113151;-74
2021/06/06 02:57:48;;;;;;;;;5.25;5.00;;;;;;;;3580162;39;114114;-73
2021/06/06 03:00:15;;;;;;;;;4.25;4.00;;;;;;;;3578279;39;112195;-73
2021/06/06 03:02:43;;;;;;;;;5.75;5.75;;;;;;;;3579842;39;114027;-75
2021/06/06 03:05:10;;;;;;;;;5.00;5.00;;;;;;;;3579578;39;111922;-73
2021/06/06 03:07:39;;;;;;;;;7.50;4.50;;;;;;;;3579908;39;113310;-73
2021/06/06 03:10:08;;;;;;;;;6.50;5.00;;;;;;;;3579374;39;114075;-74
2021/06/06 03:12:38;;;;;;;;;5.00;5.00;;;;;;;;3579576;39;111852;-74
2021/06/06 03:15:08;;;;;;;;;5.00;4.00;;;;;;;;3579907;39;113275;-73
2021/06/06 03:17:36;;;;;;;;;8.25;5.00;;;;;;;;3579163;39;114247;-74
2021/06/06 03:20:05;;;;;;;;;6.00;5.50;;;;;;;;3579822;39;111920;-73
2021/06/06 03:22:35;;;;;;;;;6.00;6.00;;;;;;;;3581560;39;113728;-74
2021/06/06 03:25:02;;;;;;;;;5.00;5.00;;;;;;;;3579851;39;112157;-73
2021/06/06 03:27:38;;;;;;;;;6.50;5.75;;;;;;;;3579151;39;114178;-73
2021/06/06 03:30:07;;;;;;;;;7.50;5.00;;;;;;;;3579198;39;113889;-74
2021/06/06 03:32:36;;;;;;;;;8.25;6.00;;;;;;;;3579467;39;111824;-74
2021/06/06 03:35:02;;;;;;;;;6.50;4.75;;;;;;;;3579798;39;113317;-73
2021/06/06 03:37:28;;;;;;;;;7.00;7.00;;;;;;;;3578571;39;113668;-74
2021/06/06 03:39:55;;;;;;;;;9.75;7.00;;;;;;;;3580268;39;111799;-74
2021/06/06 03:42:21;;;;;;;;;4.25;4.00;;;;;;;;3578752;39;113353;-74
2021/06/06 03:44:49;;;;;;;;;6.00;5.00;;;;;;;;3582491;39;113790;-72
2021/06/06 03:47:15;;;;;;;;;6.00;6.00;;;;;;;;3578969;39;113325;-73
2021/06/06 03:49:41;;;;;;;;;8.00;5.00;;;;;;;;3579627;39;113794;-74
2021/06/06 03:52:07;;;;;;;;;12.00;8.00;;;;;;;;3579315;39;111945;-73
2021/06/06 03:54:34;;;;;;;;;5.75;4.75;;;;;;;;3579429;39;113693;-73
2021/06/06 03:57:00;;;;;;;;;6.50;5.50;;;;;;;;3579242;39;114264;-73
2021/06/06 03:59:26;;;;;;;;;8.50;7.50;;;;;;;;3578995;39;112218;-73
2021/06/06 04:01:54;;;;;;;;;7.00;5.25;;;;;;;;3580437;39;113301;-73
2021/06/06 04:04:20;;;;;;;;;8.00;8.00;;;;;;;;3580587;39;113727;-73
2021/06/06 04:06:46;;;;;;;;;8.50;8.50;;;;;;;;3580273;39;113269;-73
2021/06/06 04:09:12;;;;;;;;;6.25;6.25;;;;;;;;3581911;39;114544;-73
2021/06/06 04:11:38;;;;;;;;;8.00;6.00;;;;;;;;3579274;39;111731;-73
2021/06/06 04:14:05;;;;;;;;;7.75;7.75;;;;;;;;3579437;39;113216;-74
2021/06/06 04:16:32;;;;;;;;;8.00;6.00;;;;;;;;3579125;39;114155;-74
2021/06/06 04:18:59;;;;;;;;;6.00;6.00;;;;;;;;3578876;39;112288;-74
2021/06/06 04:21:27;;;;;;;;;10.50;7.00;;;;;;;;3580009;39;113207;-74
2021/06/06 04:23:53;;;;;;;;;8.00;6.00;;;;;;;;3577935;39;114398;-74
2021/06/06 04:26:20;;;;;;;;;9.50;6.00;;;;;;;;3583206;39;111796;-72
2021/06/06 04:28:46;;;;;;;;;8.25;7.50;;;;;;;;3578026;39;114257;-73
2021/06/06 04:31:13;;;;;;;;;8.75;6.50;;;;;;;;3579928;39;111993;-73
2021/06/06 04:33:39;;;;;;;;;8.25;8.00;;;;;;;;3579244;39;113185;-74
2021/06/06 04:36:07;;;;;;;;;11.00;8.75;;;;;;;;3578744;39;114281;-73
2021/06/06 04:38:34;;;;;;;;;10.00;8.00;;;;;;;;3579409;39;111920;-73
2021/06/06 04:41:03;;;;;;;;;9.00;8.00;;;;;;;;3575272;39;112433;-74
2021/06/06 04:43:29;;;;;;;;;11.25;9.00;;;;;;;;3578019;39;114231;-73
2021/06/06 04:45:55;;;;;;;;;9.00;9.00;;;;;;;;3579623;39;111828;-73
2021/06/06 04:48:26;;;;;;;;;9.75;9.00;;;;;;;;3580730;39;113331;-73
2021/06/06 04:50:53;;;;;;;;;9.75;9.00;;;;;;;;3578286;39;111746;-74
2021/06/06 04:53:20;;;;;;;;;10.00;10.00;;;;;;;;3580393;39;113546;-74
2021/06/06 04:55:47;;;;;;;;;9.25;9.00;;;;;;;;3580061;39;114140;-74
2021/06/06 04:58:14;;;;;;;;;9.75;5.75;;;;;;;;3578826;39;112221;-73
2021/06/06 05:00:41;;;;;;;;;8.50;8.00;;;;;;;;3579471;39;113444;-74
2021/06/06 05:03:08;;;;;;;;;8.75;8.00;;;;;;;;3578586;39;114096;-74
2021/06/06 05:05:34;;;;;;;;;9.50;6.25;;;;;;;;3578821;39;112275;-74
2021/06/06 05:08:01;;;;;;;;;9.75;9.25;;;;;;;;3579600;39;113962;-74
2021/06/06 05:10:29;;;;;;;;;12.00;10.50;;;;;;;;3580662;39;113920;-74
2021/06/06 05:12:55;;;;;;;;;9.00;8.75;;;;;;;;3579633;39;113218;-74
2021/06/06 05:15:22;;;;;;;;;12.00;11.00;;;;;;;;3577844;39;113956;-73
2021/06/06 05:17:48;;;;;;;;;12.75;11.00;;;;;;;;3578137;39;111925;-74
2021/06/06 05:20:15;;;;;;;;;11.50;10.00;;;;;;;;3579734;39;113739;-75
2021/06/06 05:22:41;;;;;;;;;10.25;9.75;;;;;;;;3578308;39;113915;-74
2021/06/06 05:25:08;;;;;;;;;9.00;9.00;;;;;;;;3578952;39;111812;-73
2021/06/06 05:27:35;;;;;;;;;10.75;9.50;;;;;;;;3578981;39;113296;-73
2021/06/06 05:30:03;;;;;;;;;12.75;10.50;;;;;;;;3578311;39;113898;-74
2021/06/06 05:32:29;;;;;;;;;12.00;11.00;;;;;;;;3582039;39;112080;-73
2021/06/06 05:34:55;;;;;;;;;12.00;9.50;;;;;;;;3577593;39;114104;-74
2021/06/06 05:37:21;;;;;;;;;8.75;8.75;;;;;;;;3579826;39;111819;-74
2021/06/06 05:39:47;;;;;;;;;8.00;8.00;;;;;;;;3577848;39;113675;-74
2021/06/06 05:42:13;;;;;;;;;11.50;10.00;;;;;;;;3579002;39;113945;-73
2021/06/06 05:44:41;;;;;;;;;12.25;9.50;;;;;;;;3578422;39;112010;-74
2021/06/06 05:47:07;;;;;;;;;10.50;9.00;;;;;;;;3578825;39;113270;-74
2021/06/06 05:49:33;;;;;;;;;9.00;8.00;;;;;;;;3578480;39;114256;-73
2021/06/06 05:51:59;;;;;;;;;10.25;6.00;;;;;;;;3580158;39;111916;-73
2021/06/06 05:54:25;;;;;;;;;12.00;9.00;;;;;;;;3578995;39;113341;-74
2021/06/06 05:56:51;;;;;;;;;9.75;9.00;;;;;;;;3582553;39;112681;-74
2021/06/06 05:59:17;;;;;;;;;9.00;8.75;;;;;;;;3582284;39;113242;-74
2021/06/06 06:01:45;;;;;;;;;10.00;10.00;;;;;;;;3582109;39;113844;-73
2021/06/06 06:04:11;;;;;;;;;15.25;13.25;;;;;;;;3582064;39;112423;-75
2021/06/06 06:06:37;;;;;;;;;16.25;11.00;;;;;;;;3583351;39;113243;-73
2021/06/06 06:09:03;;;;;;;;;11.00;8.00;;;;;;;;3581735;39;113909;-75
2021/06/06 06:11:30;;;;;;;;;12.00;12.00;;;;;;;;3582920;39;111907;-74
2021/06/06 06:13:56;;;;;;;;;11.50;11.50;;;;;;;;3584783;39;113241;-70
2021/06/06 06:16:25;;;;;;;;;11.75;11.75;;;;;;;;3582553;39;111919;-71
2021/06/06 06:18:52;;;;;;;;;12.00;11.50;;;;;;;;3582956;39;113397;-72
2021/06/06 06:21:19;;;;;;;;;17.50;14.50;;;;;;;;3579671;39;113771;-71
2021/06/06 06:23:45;;;;;;;;;13.00;11.75;;;;;;;;3582574;39;111997;-71
2021/06/06 06:26:11;;;;;;;;;10.25;9.00;;;;;;;;3581063;39;113194;-72
2021/06/06 06:28:38;;;;;;;;;13.50;12.00;;;;;;;;3582215;39;113880;-72
2021/06/06 06:31:05;;;;;;;;;11.25;11.00;;;;;;;;3582126;39;111979;-72
2021/06/06 06:33:31;;;;;;;;;14.00;11.00;;;;;;;;3581487;39;113374;-72
2021/06/06 06:35:59;;;;;;;;;11.25;11.25;;;;;;;;3581451;39;113950;-71
2021/06/06 06:38:27;;;;;;;;;12.00;11.00;;;;;;;;3582746;39;113311;-72
2021/06/06 06:40:53;;;;;;;;;12.00;12.00;;;;;;;;3580298;39;114297;-71
2021/06/06 06:43:19;;;;;;;;;10.75;10.75;;;;;;;;3579822;39;111962;-71
2021/06/06 06:45:46;;;;;;;;;14.50;13.00;;;;;;;;3576225;39;112615;-72
2021/06/06 06:48:13;;;;;;;;;10.25;9.00;;;;;;;;3579901;39;114481;-70
2021/06/06 06:50:39;;;;;;;;;11.75;11.75;;;;;;;;3579491;39;111967;-71
2021/06/06 06:53:07;;;;;;;;;13.75;12.25;;;;;;;;3580017;39;113249;-71
2021/06/06 06:55:33;;;;;;;;;11.75;10.25;;;;;;;;3580430;39;113982;-73
2021/06/06 06:58:00;;;;;;;;;13.00;11.75;;;;;;;;3582632;39;111994;-71
2021/06/06 07:00:28;;;;;;;;;10.25;10.25;;;;;;;;3578824;39;114363;-70
2021/06/06 07:02:54;;;;;;;;;11.50;9.75;;;;;;;;3580326;39;112211;-71
2021/06/06 07:05:20;;;;;;;;;10.75;10.75;;;;;;;;3578879;39;113231;-73
2021/06/06 07:07:46;;;;;;;;;14.50;12.00;;;;;;;;3578360;39;113426;-71
2021/06/06 07:10:16;;;;;;;;;12.75;12.75;;;;;;;;3580229;39;112634;-74
2021/06/06 07:12:42;;;;;;;;;9.75;9.75;;;;;;;;3579213;39;113344;-73
2021/06/06 07:15:09;;;;;;;;;9.75;9.50;;;;;;;;3579702;39;113917;-72
2021/06/06 07:17:35;;;;;;;;;15.00;13.25;;;;;;;;3579541;39;112579;-70
2021/06/06 07:20:02;;;;;;;;;12.50;12.00;;;;;;;;3581901;39;113193;-70
2021/06/06 07:22:28;;;;;;;;;13.25;12.00;;;;;;;;3580184;39;111946;-69
2021/06/06 07:24:54;;;;;;;;;13.50;12.75;;;;;;;;3578918;39;113786;-70
2021/06/06 07:27:21;;;;;;;;;12.00;9.25;;;;;;;;3580297;39;114757;-69
2021/06/06 07:29:50;;;;;;;;;10.75;10.75;;;;;;;;3578978;39;112221;-70
2021/06/06 07:32:16;;;;;;;;;11.00;11.00;;;;;;;;3578810;39;113500;-70
2021/06/06 07:34:45;;;;;;;;;8.50;8.50;;;;;;;;3580108;39;113574;-69
2021/06/06 07:37:12;;;;;;;;;9.75;8.25;;;;;;;;3578786;39;111967;-69
2021/06/06 07:39:40;;;;;;;;;6.33;6.33;;;;;;;;3576253;39;112745;-71
2021/06/06 07:42:06;;;;;;;;;9.33;8.67;;;;;;;;3582217;39;113951;-71
2021/06/06 07:44:35;;;;;;;;;9.33;8.67;;;;;;;;3579614;39;113271;-70
2021/06/06 07:47:01;;;;;;;;;7.00;7.00;;;;;;;;3578298;39;113872;-72
2021/06/06 07:49:27;;;;;;;;;11.33;7.67;;;;;;;;3578993;39;111917;-73
2021/06/06 07:51:53;;;;;;;;;8.67;7.00;;;;;;;;3578214;39;113223;-69
2021/06/06 07:54:19;;;;;;;;;11.00;8.00;;;;;;;;3580007;39;114460;-71
2021/06/06 07:56:45;;;;;;;;;8.33;8.33;;;;;;;;3580039;39;111845;-71
2021/06/06 07:59:12;;;;;;;;;10.00;8.00;;;;;;;;3577429;39;112371;-70
2021/06/06 08:01:41;;;;;;;;;10.00;8.67;;;;;;;;3578650;39;113820;-70
2021/06/06 08:04:07;;;;;;;;;11.33;10.67;;;;;;;;3582558;39;112638;-75
2021/06/06 08:06:33;;;;;;;;;9.67;9.67;;;;;;;;3578269;39;113697;-71
2021/06/06 08:08:59;;;;;;;;;10.00;9.00;;;;;;;;3581295;39;112243;-74
2021/06/06 08:11:25;;;;;;;;;9.67;9.00;;;;;;;;3579136;39;113376;-74
2021/06/06 08:13:53;;;;;;;;;8.00;8.00;;;;;;;;3576470;39;112969;-70
2021/06/06 08:16:20;;;;;;;;;8.33;7.33;;;;;;;;3578135;39;112314;-69
2021/06/06 08:18:48;;;;;;;;;8.67;8.33;;;;;;;;3577874;39;113405;-69
2021/06/06 08:21:15;;;;;;;;;8.67;6.67;;;;;;;;3575090;39;113100;-71
2021/06/06 08:23:42;;;;;;;;;5.33;5.33;;;;;;;;3579700;39;112081;-73
2021/06/06 08:26:08;;;;;;;;;8.00;8.00;;;;;;;;3579396;39;114001;-74
2021/06/06 08:28:35;;;;;;;;;8.00;8.00;;;;;;;;3579141;39;111754;-72
2021/06/06 08:31:03;;;;;;;;;6.33;5.00;;;;;;;;3579028;39;113298;-74
2021/06/06 08:33:30;;;;;;;;;4.00;4.00;;;;;;;;3579135;39;114038;-73
2021/06/06 08:35:59;;;;;;;;;7.33;7.33;;;;;;;;3578168;39;112202;-75
2021/06/06 08:38:26;;;;;;;;;8.00;7.00;;;;;;;;3579309;39;113580;-73
2021/06/06 08:40:55;;;;;;;;;8.00;6.33;;;;;;;;3579220;39;114353;-73
2021/06/06 08:43:22;;;;;;;;;9.33;8.00;;;;;;;;3579756;39;112422;-73
2021/06/06 08:45:50;;;;;;;;;7.00;7.00;;;;;;;;3580037;39;113482;-75
2021/06/06 08:48:17;;;;;;;;;9.33;6.00;;;;;;;;3578796;39;111892;-73
2021/06/06 08:50:44;;;;;;;;;7.33;6.00;;;;;;;;3579968;39;113870;-74
2021/06/06 08:53:17;;;;;;;;;10.00;8.67;;;;;;;;3578118;39;114096;-74
2021/06/06 08:55:56;;;;;;;;;7.67;6.67;;;;;;;;3579810;39;112031;-73
2021/06/06 08:58:29;;;;;;;;;8.00;7.00;;;;;;;;3578463;39;113374;-72
2021/06/06 09:01:02;;;;;;;;;7.00;7.00;;;;;;;;3579109;39;114265;-72
2021/06/06 09:03:29;;;;;;;;;8.67;7.00;;;;;;;;3578944;39;112116;-72
2021/06/06 09:05:59;;;;;;;;;7.00;6.33;;;;;;;;3579576;39;113213;-72
2021/06/06 09:08:27;;;;;;;;;7.00;7.00;;;;;;;;3580645;39;113881;-71
2021/06/06 09:10:55;;;;;;;;;7.00;7.00;;;;;;;;3574729;39;112407;-72
2021/06/06 09:13:22;;;;;;;;;7.67;6.00;;;;;;;;3578145;39;113841;-71
2021/06/06 09:15:48;;;;;;;;;5.00;5.00;;;;;;;;3574916;39;112114;-72
2021/06/06 09:18:22;;;;;;;;;6.33;6.00;;;;;;;;3579988;39;113372;-71
2021/06/06 09:20:49;;;;;;;;;5.00;5.00;;;;;;;;3577497;39;113834;-71
2021/06/06 09:23:20;;;;;;;;;5.67;5.00;;;;;;;;3578222;39;113055;-73
2021/06/06 09:25:59;;;;;;;;;4.67;4.67;;;;;;;;3576304;39;111904;-72
2021/06/06 09:28:27;;;;;;;;;16.33;13.33;;;;;;;;3577996;39;114111;-72
2021/06/06 09:30:58;;;;;;;;;8.00;5.33;;;;;;;;3581852;39;111855;-73
2021/06/06 09:33:27;;;;;;;;;6.00;6.00;;;;;;;;3580057;39;113898;-72
2021/06/06 09:35:54;;;;;;;;;5.00;5.00;;;;;;;;3574326;39;111912;-71
2021/06/06 09:38:24;;;;;;;;;7.00;7.00;;;;;;;;3577914;39;113268;-71
2021/06/06 09:40:52;;;;;;;;;6.00;6.00;;;;;;;;3579153;39;113974;-71
2021/06/06 09:43:27;;;;;;;;;7.00;7.00;;;;;;;;3578236;39;112015;-70
2021/06/06 09:46:03;;;;;;;;;7.00;7.00;;;;;;;;3578056;39;113336;-70
2021/06/06 09:48:30;;;;;;;;;8.67;7.33;;;;;;;;3573504;39;113043;-70
2021/06/06 09:56:09;;;;;;;;;4.00;4.00;;;;;;;;4977998;22;113949;-79
2021/06/06 09:58:37;;;;;;;;;7.33;6.00;;;;;;;;3530840;39;113762;-76
2021/06/06 10:01:08;;;;;;;;;5.67;5.67;;;;;;;;3529252;39;113970;-79
2021/06/06 10:03:36;;;;;;;;;9.00;7.00;;;;;;;;3529885;39;112114;-79
2021/06/06 10:06:13;;;;;;;;;4.33;4.00;;;;;;;;3529020;39;113679;-76
2021/06/06 10:08:39;;;;;;;;;7.00;6.67;;;;;;;;3529175;39;113837;-79
2021/06/06 10:11:11;;;;;;;;;5.67;5.67;;;;;;;;3527445;39;112021;-74
2021/06/06 10:13:39;;;;;;;;;6.33;6.00;;;;;;;;3531547;39;112905;-76
2021/06/06 10:16:07;;;;;;;;;5.67;5.67;;;;;;;;3530698;39;112137;-75
2021/06/06 10:18:35;;;;;;;;;8.00;8.00;;;;;;;;3529739;39;113298;-75
2021/06/06 10:21:04;;;;;;;;;7.00;6.00;;;;;;;;3528389;39;114732;-75
2021/06/06 10:23:32;;;;;;;;;6.67;5.33;;;;;;;;3527399;39;112090;-76
2021/06/06 10:26:00;;;;;;;;;7.67;7.00;;;;;;;;3529275;39;113637;-74
2021/06/06 10:28:33;;;;;;;;;4.00;4.00;;;;;;;;3527138;39;114273;-76
2021/06/06 10:31:02;;;;;;;;;6.67;5.00;;;;;;;;3528605;39;112007;-73
2021/06/06 10:33:31;;;;;;;;;4.00;4.00;;;;;;;;3534377;39;113736;-73
2021/06/06 10:35:58;;;;;;;;;6.67;5.00;;;;;;;;3539625;39;113900;-72
2021/06/06 10:38:24;;;;;;;;;5.33;5.00;;;;;;;;3539130;39;113289;-73
2021/06/06 10:40:52;;;;;;;;;6.00;6.00;;;;;;;;3537247;39;113799;-73
2021/06/06 10:43:27;;;;;;;;;3.00;3.00;;;;;;;;3539840;39;112290;-75
2021/06/06 10:46:01;;;;;;;;;3.33;2.67;;;;;;;;3530036;39;113623;-76
2021/06/06 10:48:31;;;;;;;;;7.33;4.67;;;;;;;;3528327;39;113929;-74
2021/06/06 10:51:06;;;;;;;;;5.33;3.67;;;;;;;;3532323;39;112459;-76
2021/06/06 10:53:34;;;;;;;;;7.00;7.00;;;;;;;;3530683;39;113193;-73
2021/06/06 10:56:11;;;;;;;;;6.33;5.00;;;;;;;;3528080;39;114089;-73
2021/06/06 10:58:40;;;;;;;;;8.00;8.00;;;;;;;;3533463;39;111851;-75
2021/06/06 11:01:21;;;;;;;;;9.33;4.00;;;;;;;;3530446;39;113809;-74
2021/06/06 11:03:49;;;;;;;;;7.00;5.33;;;;;;;;3528220;39;112128;-77
2021/06/06 11:06:22;;;;;;;;;5.67;4.33;;;;;;;;3529352;39;113682;-75
2021/06/06 11:08:48;;;;;;;;;5.67;4.33;;;;;;;;3528866;39;114295;-74
2021/06/06 11:11:18;;;;;;;;;7.00;6.00;;;;;;;;3529505;39;111919;-74
2021/06/06 11:13:46;;;;;;;;;11.67;9.00;;;;;;;;3529126;39;112832;-75
2021/06/06 11:16:23;;;;;;;;;8.67;8.33;;;;;;;;3529587;39;114181;-77
2021/06/06 11:18:54;;;;;;;;;12.33;10.00;;;;;;;;3531106;39;111794;-75
2021/06/06 11:21:30;;;;;;;;;7.00;7.00;;;;;;;;3531652;39;113755;-73
2021/06/06 11:23:58;;;;;;;;;7.67;7.00;;;;;;;;3528597;39;112721;-74
2021/06/06 11:26:25;;;;;;;;;6.33;6.33;;;;;;;;3529567;39;113830;-74
2021/06/06 11:29:05;;;;;;;;;6.00;6.00;;;;;;;;3526798;39;113060;-74
2021/06/06 11:31:33;;;;;;;;;6.67;6.67;;;;;;;;3530188;39;111913;-74
2021/06/06 11:34:02;;;;;;;;;8.00;6.00;;;;;;;;3528265;39;113242;-75
2021/06/06 11:36:30;;;;;;;;;4.67;4.67;;;;;;;;3529484;39;113917;-74
2021/06/06 11:38:56;;;;;;;;;6.67;4.00;;;;;;;;3528616;39;112628;-74
2021/06/06 11:41:33;;;;;;;;;7.00;7.00;;;;;;;;3529336;39;113398;-74
2021/06/06 11:44:08;;;;;;;;;6.00;6.00;;;;;;;;3530403;39;114336;-74
2021/06/06 11:46:38;;;;;;;;;4.00;4.00;;;;;;;;3530500;39;113435;-74
2021/06/06 11:49:17;;;;;;;;;6.67;6.00;;;;;;;;3529749;39;113944;-74
2021/06/06 11:51:46;;;;;;;;;6.67;6.67;;;;;;;;3530451;39;112955;-74
2021/06/06 11:54:20;;;;;;;;;8.33;6.00;;;;;;;;3528626;39;113554;-74
2021/06/06 11:56:46;;;;;;;;;4.33;4.00;;;;;;;;3529070;39;113906;-74
2021/06/06 11:59:17;;;;;;;;;6.00;4.67;;;;;;;;3528457;39;111979;-74
2021/06/06 12:01:51;;;;;;;;;6.00;6.00;;;;;;;;3528209;39;113431;-74
2021/06/06 12:04:25;;;;;;;;;5.00;5.00;;;;;;;;3528797;39;113907;-74
2021/06/06 12:06:51;;;;;;;;;5.00;5.00;;;;;;;;3530852;39;112203;-74
2021/06/06 12:09:18;;;;;;;;;4.67;4.00;;;;;;;;3528945;39;113911;-74
2021/06/06 12:11:44;;;;;;;;;4.00;4.00;;;;;;;;3529652;39;112602;-74
2021/06/06 12:14:13;;;;;;;;;4.67;4.00;;;;;;;;3528708;39;113416;-75
2021/06/06 12:16:45;;;;;;;;;4.00;4.00;;;;;;;;3529311;39;113841;-75
2021/06/06 12:19:12;;;;;;;;;7.67;5.00;;;;;;;;3528621;39;112245;-75
2021/06/06 12:21:41;;;;;;;;;5.00;5.00;;;;;;;;3529878;39;113366;-74
2021/06/06 12:24:10;;;;;;;;;6.00;5.00;;;;;;;;3527601;39;114180;-75
2021/06/06 12:26:38;;;;;;;;;6.67;6.00;;;;;;;;3532638;39;113044;-75
2021/06/06 12:29:04;;;;;;;;;5.00;5.00;;;;;;;;3527668;39;114319;-74
2021/06/06 12:31:33;;;;;;;;;6.33;3.67;;;;;;;;3530067;39;111849;-74
2021/06/06 12:34:09;;;;;;;;;4.00;4.00;;;;;;;;3528045;39;113473;-75
2021/06/06 12:36:37;;;;;;;;;6.33;3.00;;;;;;;;3529694;39;113794;-74
2021/06/06 12:39:06;;;;;;;;;3.33;3.33;;;;;;;;3528065;39;111910;-74
2021/06/06 12:41:37;;;;;;;;;3.00;3.00;;;;;;;;3530139;39;113649;-74
2021/06/06 12:44:03;;;;;;;;;6.00;4.00;;;;;;;;3529702;39;113932;-74
2021/06/06 12:46:29;;;;;;;;;5.00;5.00;;;;;;;;3528098;39;112106;-74
2021/06/06 12:48:58;;;;;;;;;1.33;1.33;;;;;;;;3531684;39;113230;-73
2021/06/06 12:51:27;;;;;;;;;3.00;3.00;;;;;;;;3528456;39;111774;-74
2021/06/06 12:53:53;;;;;;;;;6.00;5.33;;;;;;;;3529245;39;113333;-74
2021/06/06 12:56:27;;;;;;;;;5.00;3.33;;;;;;;;3528444;39;113876;-74
2021/06/06 12:59:02;;;;;;;;;3.00;3.00;;;;;;;;3529303;39;111925;-74
2021/06/06 13:01:30;;;;;;;;;4.67;4.00;;;;;;;;3527952;39;113363;-74
2021/06/06 13:03:56;;;;;;;;;4.00;3.00;;;;;;;;3528334;39;114237;-74
2021/06/06 13:06:36;;;;;;;;;7.33;6.33;;;;;;;;3528421;39;111927;-75
2021/06/06 13:09:20;;;;;;;;;6.00;6.00;;;;;;;;3529847;39;114452;-74
2021/06/06 13:11:49;;;;;;;;;4.67;4.00;;;;;;;;3532198;39;113993;-74
2021/06/06 13:14:18;;;;;;;;;5.00;3.33;;;;;;;;3528939;39;113339;-74
2021/06/06 13:16:47;;;;;;;;;3.33;3.33;;;;;;;;3528481;39;113849;-74
2021/06/06 13:19:18;;;;;;;;;5.00;5.00;;;;;;;;3528393;39;111964;-74
2021/06/06 13:21:46;;;;;;;;;6.00;4.33;;;;;;;;3528978;39;113610;-74
2021/06/06 13:24:16;;;;;;;;;6.33;5.00;;;;;;;;3527707;39;113874;-75
2021/06/06 13:26:43;;;;;;;;;5.33;5.33;;;;;;;;3528943;39;111859;-74
2021/06/06 13:29:14;;;;;;;;;5.00;5.00;;;;;;;;3527907;39;113790;-74
2021/06/06 13:31:41;;;;;;;;;6.00;5.00;;;;;;;;3528720;39;113923;-74
2021/06/06 13:34:08;;;;;;;;;4.33;4.33;;;;;;;;3530555;39;111879;-74
2021/06/06 13:36:35;;;;;;;;;4.00;4.00;;;;;;;;3528892;39;114345;-73
2021/06/06 13:39:11;;;;;;;;;7.00;4.67;;;;;;;;3527493;39;112504;-75
2021/06/06 13:41:37;;;;;;;;;6.00;6.00;;;;;;;;3530039;39;113360;-74
2021/06/06 13:44:03;;;;;;;;;6.33;5.33;;;;;;;;3527028;39;113793;-75
2021/06/06 13:46:31;;;;;;;;;9.00;5.00;;;;;;;;3529468;39;111909;-75
2021/06/06 13:48:57;;;;;;;;;4.00;4.00;;;;;;;;3527579;39;113203;-75
2021/06/06 13:51:23;;;;;;;;;5.00;4.33;;;;;;;;3528469;39;113974;-75
2021/06/06 13:53:49;;;;;;;;;6.00;6.00;;;;;;;;3528085;39;111947;-74
2021/06/06 13:56:15;;;;;;;;;6.33;5.33;;;;;;;;3530520;39;113951;-73
2021/06/06 13:58:41;;;;;;;;;6.00;6.00;;;;;;;;3528665;39;112080;-73
2021/06/06 14:01:07;;;;;;;;;5.33;5.00;;;;;;;;3527576;39;113346;-72
2021/06/06 14:03:36;;;;;;;;;8.33;6.00;;;;;;;;3529002;39;113785;-78
2021/06/06 14:06:04;;;;;;;;;8.00;6.00;;;;;;;;3527387;39;111941;-75
2021/06/06 14:08:32;;;;;;;;;5.00;5.00;;;;;;;;3529435;39;114515;-78
2021/06/06 14:11:00;;;;;;;;;5.33;5.33;;;;;;;;3528668;39;113898;-76
2021/06/06 14:13:29;;;;;;;;;6.67;6.67;;;;;;;;3527199;39;112398;-77
2021/06/06 14:15:55;;;;;;;;;5.00;5.00;;;;;;;;3527956;39;113823;-77
2021/06/06 14:18:22;;;;;;;;;7.33;4.33;;;;;;;;3532361;39;113843;-76
2021/06/06 14:20:50;;;;;;;;;6.33;6.33;;;;;;;;3529276;39;113355;-76
2021/06/06 14:23:16;;;;;;;;;5.67;5.00;;;;;;;;3529019;39;113972;-76
2021/06/06 14:25:42;;;;;;;;;6.00;5.00;;;;;;;;3529604;39;111931;-75
2021/06/06 14:28:11;;;;;;;;;7.33;6.00;;;;;;;;3528969;39;113209;-78
2021/06/06 14:30:37;;;;;;;;;6.33;6.33;;;;;;;;3529620;39;113945;-76
2021/06/06 14:33:04;;;;;;;;;5.33;5.33;;;;;;;;3529830;39;112229;-77
2021/06/06 14:35:30;;;;;;;;;5.33;4.33;;;;;;;;3529906;39;113751;-84
2021/06/06 14:37:58;;;;;;;;;7.33;7.33;;;;;;;;3532468;39;114147;-80